Time;durP1;ratioP1;P1;durP2;ratioP2;P2;SDS_P1;SDS_P2;PMS_P1;PMS_P2;Temp;Humidity;BMP_temperature;BMP_pressure;BME280_temperature;BME280_humidity;BME280_pressure;Samples;Min_cycle;Max_cycle;Signal;HPM_P1;HPM_P2
2021/09/12 00:00:19;;;;;;;5.55;5.25;;;;;;;;;;5017837;28;20092;-77
2021/09/12 00:02:46;;;;;;;5.15;4.85;;;;;;;;;;5028034;28;20038;-78
2021/09/12 00:05:15;;;;;;;5.32;5.10;;;;;;;;;;5029419;28;20112;-78
2021/09/12 00:07:42;;;;;;;4.43;4.32;;;;;;;;;;5024562;28;20038;-78
2021/09/12 00:10:09;;;;;;;5.07;4.97;;;;;;;;;;5023735;28;20121;-78
2021/09/12 00:12:37;;;;;;;5.28;5.18;;;;;;;;;;5010960;28;20679;-78
2021/09/12 00:15:06;;;;;;;5.70;5.45;;;;;;;;;;5045196;28;20072;-78
2021/09/12 00:17:32;;;;;;;5.35;5.20;;;;;;;;;;5028782;28;20041;-78
2021/09/12 00:19:59;;;;;;;5.80;5.60;;;;;;;;;;5028083;28;20037;-78
2021/09/12 00:22:26;;;;;;;6.15;5.47;;;;;;;;;;5026398;28;20033;-78
2021/09/12 00:24:53;;;;;;;5.85;5.68;;;;;;;;;;5029083;28;20041;-78
2021/09/12 00:27:19;;;;;;;5.63;5.28;;;;;;;;;;5026722;28;20083;-78
2021/09/12 00:29:46;;;;;;;6.53;6.28;;;;;;;;;;5027565;28;20029;-78
2021/09/12 00:32:13;;;;;;;5.38;5.13;;;;;;;;;;5028331;28;20033;-78
2021/09/12 00:34:40;;;;;;;6.15;5.82;;;;;;;;;;5027950;28;20056;-78
2021/09/12 00:37:07;;;;;;;6.80;6.43;;;;;;;;;;5060993;28;20044;-78
2021/09/12 00:39:34;;;;;;;6.15;5.75;;;;;;;;;;5023648;28;20620;-78
2021/09/12 00:42:00;;;;;;;5.95;5.65;;;;;;;;;;5028228;28;20049;-78
2021/09/12 00:44:27;;;;;;;5.75;5.45;;;;;;;;;;5029214;28;20038;-78
2021/09/12 00:46:54;;;;;;;6.50;6.15;;;;;;;;;;5024414;28;20498;-78
2021/09/12 00:49:21;;;;;;;7.20;6.78;;;;;;;;;;5017178;28;20497;-78
2021/09/12 00:51:48;;;;;;;4.78;4.50;;;;;;;;;;5033905;28;20049;-78
2021/09/12 00:54:17;;;;;;;5.28;5.18;;;;;;;;;;5051767;28;20038;-78
2021/09/12 00:56:44;;;;;;;6.35;6.15;;;;;;;;;;5027993;28;20042;-78
2021/09/12 00:59:11;;;;;;;6.63;6.45;;;;;;;;;;5026043;28;20029;-78
2021/09/12 01:01:39;;;;;;;7.35;6.13;;;;;;;;;;5027325;28;20497;-78
2021/09/12 01:04:08;;;;;;;6.40;5.97;;;;;;;;;;5027344;28;20065;-78
2021/09/12 01:06:34;;;;;;;5.78;5.38;;;;;;;;;;5026685;28;20041;-78
2021/09/12 01:09:02;;;;;;;5.80;5.60;;;;;;;;;;5026166;28;20053;-78
2021/09/12 01:11:29;;;;;;;6.07;5.85;;;;;;;;;;5025914;28;20103;-78
2021/09/12 01:13:56;;;;;;;5.88;5.78;;;;;;;;;;5023661;28;20072;-78
2021/09/12 01:16:22;;;;;;;7.45;6.88;;;;;;;;;;5032575;28;20053;-78
2021/09/12 01:18:49;;;;;;;7.13;6.28;;;;;;;;;;5029656;28;20061;-78
2021/09/12 01:21:18;;;;;;;7.10;6.90;;;;;;;;;;5027155;28;20107;-78
2021/09/12 01:23:45;;;;;;;6.50;6.05;;;;;;;;;;5031527;28;20045;-78
2021/09/12 01:26:12;;;;;;;7.50;7.30;;;;;;;;;;5030973;28;20038;-78
2021/09/12 01:28:39;;;;;;;6.93;6.63;;;;;;;;;;5030112;28;20049;-78
2021/09/12 01:31:07;;;;;;;5.57;5.18;;;;;;;;;;5028705;28;20041;-78
2021/09/12 01:33:33;;;;;;;6.40;6.20;;;;;;;;;;5027181;28;20126;-78
2021/09/12 01:36:00;;;;;;;6.90;6.55;;;;;;;;;;5032784;28;20046;-78
2021/09/12 01:38:27;;;;;;;7.25;6.85;;;;;;;;;;5032313;28;20041;-78
2021/09/12 01:40:53;;;;;;;6.55;6.18;;;;;;;;;;5030917;28;20426;-78
2021/09/12 01:43:20;;;;;;;7.47;7.28;;;;;;;;;;5028592;28;20104;-78
2021/09/12 01:45:47;;;;;;;6.25;6.03;;;;;;;;;;5062401;28;20525;-78
2021/09/12 01:48:15;;;;;;;6.60;6.28;;;;;;;;;;5028554;28;20061;-78
2021/09/12 01:50:42;;;;;;;6.97;6.45;;;;;;;;;;5030474;28;20068;-77
2021/09/12 01:53:08;;;;;;;6.53;6.32;;;;;;;;;;5028928;28;20437;-77
2021/09/12 01:55:35;;;;;;;5.53;5.28;;;;;;;;;;5028361;28;20073;-77
2021/09/12 01:58:02;;;;;;;6.35;6.15;;;;;;;;;;5030214;28;20046;-77
2021/09/12 02:00:29;;;;;;;6.18;6.05;;;;;;;;;;5030436;28;20042;-77
2021/09/12 02:02:57;;;;;;;6.35;6.05;;;;;;;;;;5027759;28;20077;-77
2021/09/12 02:05:25;;;;;;;5.75;5.55;;;;;;;;;;5031727;28;20076;-77
2021/09/12 02:07:52;;;;;;;5.97;5.50;;;;;;;;;;5030108;28;20061;-77
2021/09/12 02:10:19;;;;;;;6.72;6.30;;;;;;;;;;5031631;28;20075;-77
2021/09/12 02:12:45;;;;;;;6.45;6.35;;;;;;;;;;5018122;28;20148;-77
2021/09/12 02:15:13;;;;;;;6.45;6.25;;;;;;;;;;5057236;28;20037;-77
2021/09/12 02:17:39;;;;;;;6.05;5.95;;;;;;;;;;5030904;28;20123;-77
2021/09/12 02:20:07;;;;;;;7.43;7.22;;;;;;;;;;5061239;28;20424;-77
2021/09/12 02:22:34;;;;;;;6.78;6.53;;;;;;;;;;5030112;28;20493;-77
2021/09/12 02:25:00;;;;;;;7.07;6.88;;;;;;;;;;5030190;28;20463;-77
2021/09/12 02:27:27;;;;;;;8.27;7.60;;;;;;;;;;5028720;28;20041;-77
2021/09/12 02:29:54;;;;;;;8.15;7.43;;;;;;;;;;5030854;28;20046;-77
2021/09/12 02:32:21;;;;;;;7.07;6.70;;;;;;;;;;5030875;28;20126;-77
2021/09/12 02:34:47;;;;;;;6.93;6.60;;;;;;;;;;5030954;28;20969;-77
2021/09/12 02:37:14;;;;;;;7.47;7.18;;;;;;;;;;5029962;28;20033;-77
2021/09/12 02:39:41;;;;;;;6.18;5.88;;;;;;;;;;5028796;28;20092;-77
2021/09/12 02:42:07;;;;;;;7.20;6.95;;;;;;;;;;5029144;28;20050;-77
2021/09/12 02:44:34;;;;;;;7.38;7.03;;;;;;;;;;5031549;28;20059;-77
2021/09/12 02:47:01;;;;;;;7.07;6.68;;;;;;;;;;5029227;28;20068;-77
2021/09/12 02:49:28;;;;;;;7.13;6.88;;;;;;;;;;5029241;28;20041;-78
2021/09/12 02:51:54;;;;;;;7.43;7.13;;;;;;;;;;5057980;28;20445;-78
2021/09/12 02:54:21;;;;;;;7.75;7.40;;;;;;;;;;5029649;28;20037;-78
2021/09/12 02:56:48;;;;;;;7.07;6.80;;;;;;;;;;5030438;28;20042;-78
2021/09/12 02:59:14;;;;;;;6.55;6.30;;;;;;;;;;5028804;28;20091;-78
2021/09/12 03:01:41;;;;;;;6.82;6.40;;;;;;;;;;5029969;28;20037;-77
2021/09/12 03:04:08;;;;;;;7.85;7.15;;;;;;;;;;5055666;28;20116;-77
2021/09/12 03:06:35;;;;;;;7.68;7.15;;;;;;;;;;5032530;28;20049;-77
2021/09/12 03:09:02;;;;;;;7.35;7.13;;;;;;;;;;5055372;28;20042;-77
2021/09/12 03:11:29;;;;;;;7.40;7.00;;;;;;;;;;5026971;28;20073;-77
2021/09/12 03:13:55;;;;;;;8.40;7.90;;;;;;;;;;5030504;28;20095;-77
2021/09/12 03:16:23;;;;;;;7.72;7.28;;;;;;;;;;5028941;28;20037;-77
2021/09/12 03:18:50;;;;;;;7.18;6.95;;;;;;;;;;5028595;28;20087;-77
2021/09/12 03:21:18;;;;;;;6.30;6.10;;;;;;;;;;5027285;28;20057;-77
2021/09/12 03:23:45;;;;;;;7.50;7.10;;;;;;;;;;5028645;28;20460;-77
2021/09/12 03:26:12;;;;;;;7.40;7.22;;;;;;;;;;5029727;28;20025;-77
2021/09/12 03:28:39;;;;;;;8.38;8.07;;;;;;;;;;5054455;28;20474;-77
2021/09/12 03:31:06;;;;;;;6.68;6.38;;;;;;;;;;5028347;28;20061;-77
2021/09/12 03:33:32;;;;;;;5.63;5.53;;;;;;;;;;5028188;28;20112;-77
2021/09/12 03:35:59;;;;;;;6.75;6.55;;;;;;;;;;5029225;28;20371;-77
2021/09/12 03:38:26;;;;;;;6.03;5.93;;;;;;;;;;5010935;28;20041;-77
2021/09/12 03:40:52;;;;;;;7.22;6.95;;;;;;;;;;5028057;28;20577;-77
2021/09/12 03:43:19;;;;;;;7.45;7.15;;;;;;;;;;5060725;28;20048;-77
2021/09/12 03:45:46;;;;;;;7.70;7.07;;;;;;;;;;5055669;28;20107;-77
2021/09/12 03:48:13;;;;;;;5.95;5.60;;;;;;;;;;5028123;28;20365;-77
2021/09/12 03:50:40;;;;;;;7.03;6.72;;;;;;;;;;5028777;28;20041;-77
2021/09/12 03:53:07;;;;;;;7.25;6.30;;;;;;;;;;5060988;28;20073;-77
2021/09/12 03:55:33;;;;;;;6.03;5.82;;;;;;;;;;5028463;28;20045;-77
2021/09/12 03:58:00;;;;;;;6.05;5.82;;;;;;;;;;5020485;28;20037;-77
2021/09/12 04:00:27;;;;;;;7.18;6.80;;;;;;;;;;5026708;28;20038;-77
2021/09/12 04:02:54;;;;;;;7.68;7.28;;;;;;;;;;5027912;28;20488;-77
2021/09/12 04:05:22;;;;;;;7.70;7.05;;;;;;;;;;5030725;28;20045;-77
2021/09/12 04:07:48;;;;;;;6.57;6.20;;;;;;;;;;5028837;28;20567;-77
2021/09/12 04:10:15;;;;;;;7.70;7.32;;;;;;;;;;5027527;28;20049;-77
2021/09/12 04:12:42;;;;;;;6.35;6.05;;;;;;;;;;5026756;28;20041;-77
2021/09/12 04:15:09;;;;;;;6.45;6.25;;;;;;;;;;5028092;28;20046;-77
2021/09/12 04:17:36;;;;;;;6.03;5.82;;;;;;;;;;5029198;28;20076;-77
2021/09/12 04:20:04;;;;;;;7.07;6.82;;;;;;;;;;5028435;28;20045;-77
2021/09/12 04:22:31;;;;;;;7.63;7.32;;;;;;;;;;5025708;28;20037;-77
2021/09/12 04:24:58;;;;;;;8.93;8.25;;;;;;;;;;5027188;28;20122;-77
2021/09/12 04:27:24;;;;;;;7.80;7.50;;;;;;;;;;5027942;28;20041;-77
2021/09/12 04:29:51;;;;;;;7.32;7.13;;;;;;;;;;5021342;28;20037;-78
2021/09/12 04:32:18;;;;;;;7.90;7.50;;;;;;;;;;5028037;28;20037;-78
2021/09/12 04:34:47;;;;;;;6.78;6.40;;;;;;;;;;5028582;28;20038;-77
2021/09/12 04:37:14;;;;;;;7.97;7.43;;;;;;;;;;5021993;28;20044;-77
2021/09/12 04:39:41;;;;;;;7.53;7.07;;;;;;;;;;5015764;28;20054;-77
2021/09/12 04:42:08;;;;;;;8.60;8.07;;;;;;;;;;5028935;28;20111;-77
2021/09/12 04:44:35;;;;;;;7.38;6.93;;;;;;;;;;5057355;28;20052;-77
2021/09/12 04:47:02;;;;;;;6.53;6.22;;;;;;;;;;5010409;28;20053;-77
2021/09/12 04:49:29;;;;;;;7.72;7.43;;;;;;;;;;5028635;28;20041;-77
2021/09/12 04:51:56;;;;;;;7.40;7.00;;;;;;;;;;5022843;28;20072;-77
2021/09/12 04:54:23;;;;;;;7.70;7.32;;;;;;;;;;5023614;28;20057;-77
2021/09/12 04:56:50;;;;;;;7.60;7.28;;;;;;;;;;5025798;28;20038;-77
2021/09/12 04:59:17;;;;;;;7.65;7.30;;;;;;;;;;5026971;28;20042;-77
2021/09/12 05:01:44;;;;;;;6.95;6.75;;;;;;;;;;5018602;28;20125;-77
2021/09/12 05:04:11;;;;;;;8.00;7.60;;;;;;;;;;5028473;28;20026;-77
2021/09/12 05:06:38;;;;;;;8.98;8.10;;;;;;;;;;5019281;28;20096;-78
2021/09/12 05:09:04;;;;;;;7.28;7.10;;;;;;;;;;5027077;28;20417;-77
2021/09/12 05:11:31;;;;;;;7.70;7.47;;;;;;;;;;5019158;28;20127;-77
2021/09/12 05:13:58;;;;;;;8.73;8.40;;;;;;;;;;5026798;28;20095;-77
2021/09/12 05:16:25;;;;;;;8.68;8.40;;;;;;;;;;5028123;28;20044;-77
2021/09/12 05:18:51;;;;;;;8.02;6.55;;;;;;;;;;5039469;28;20053;-77
2021/09/12 05:21:18;;;;;;;7.13;6.72;;;;;;;;;;5027102;28;20038;-77
2021/09/12 05:23:45;;;;;;;7.63;7.32;;;;;;;;;;5051411;28;20033;-77
2021/09/12 05:26:12;;;;;;;7.95;7.57;;;;;;;;;;5027229;28;20052;-77
2021/09/12 05:28:38;;;;;;;8.23;7.75;;;;;;;;;;5026816;28;20037;-77
2021/09/12 05:31:05;;;;;;;8.07;7.70;;;;;;;;;;5027866;28;20053;-77
2021/09/12 05:33:32;;;;;;;8.05;7.60;;;;;;;;;;5026279;28;20367;-77
2021/09/12 05:35:59;;;;;;;8.23;7.82;;;;;;;;;;5025616;28;20038;-77
2021/09/12 05:38:25;;;;;;;7.38;6.97;;;;;;;;;;5025028;28;20122;-77
2021/09/12 05:40:52;;;;;;;7.38;7.03;;;;;;;;;;5027602;28;20045;-77
2021/09/12 05:43:18;;;;;;;8.43;8.05;;;;;;;;;;5027059;28;20041;-77
2021/09/12 05:45:46;;;;;;;8.27;7.97;;;;;;;;;;5025242;28;20049;-77
2021/09/12 05:48:12;;;;;;;8.27;8.05;;;;;;;;;;5027239;28;20045;-77
2021/09/12 05:50:40;;;;;;;10.25;9.95;;;;;;;;;;5028325;28;20104;-77
2021/09/12 05:53:09;;;;;;;8.98;8.38;;;;;;;;;;5058212;28;20056;-77
2021/09/12 05:55:37;;;;;;;10.23;9.27;;;;;;;;;;5026055;28;20038;-77
2021/09/12 05:58:03;;;;;;;8.80;8.38;;;;;;;;;;5031495;28;20457;-77
2021/09/12 06:00:31;;;;;;;9.73;9.05;;;;;;;;;;5031798;28;20507;-77
2021/09/12 06:02:58;;;;;;;9.50;8.68;;;;;;;;;;5011310;28;20129;-77
2021/09/12 06:05:30;;;;;;;8.87;8.47;;;;;;;;;;5028818;28;20065;-77
2021/09/12 06:07:57;;;;;;;9.48;8.88;;;;;;;;;;5031429;28;20140;-77
2021/09/12 06:10:24;;;;;;;8.70;8.32;;;;;;;;;;5029771;28;20056;-77
2021/09/12 06:12:50;;;;;;;7.15;6.93;;;;;;;;;;5014490;28;20081;-77
2021/09/12 06:15:18;;;;;;;8.73;8.20;;;;;;;;;;5029555;28;20037;-77
2021/09/12 06:17:45;;;;;;;8.02;7.82;;;;;;;;;;5030649;28;20041;-77
2021/09/12 06:20:12;;;;;;;7.53;7.35;;;;;;;;;;5028348;28;20548;-77
2021/09/12 06:22:43;;;;;;;7.10;6.70;;;;;;;;;;5021719;28;20042;-77
2021/09/12 06:25:10;;;;;;;7.07;6.88;;;;;;;;;;5026703;28;20037;-78
2021/09/12 06:27:36;;;;;;;5.88;5.57;;;;;;;;;;5030296;28;20057;-78
2021/09/12 06:30:04;;;;;;;8.10;7.57;;;;;;;;;;5025553;28;20104;-78
2021/09/12 06:32:30;;;;;;;7.53;7.22;;;;;;;;;;5027256;28;20458;-78
2021/09/12 06:34:57;;;;;;;8.18;7.88;;;;;;;;;;5010651;28;20100;-78
2021/09/12 06:37:24;;;;;;;8.43;8.13;;;;;;;;;;5027110;28;20091;-78
2021/09/12 06:39:51;;;;;;;7.95;7.63;;;;;;;;;;5019203;28;20113;-77
2021/09/12 06:42:17;;;;;;;7.13;6.63;;;;;;;;;;5059553;28;20041;-77
2021/09/12 06:44:44;;;;;;;6.85;6.35;;;;;;;;;;5061438;28;20037;-77
2021/09/12 06:47:11;;;;;;;8.15;7.43;;;;;;;;;;5030798;28;20491;-77
2021/09/12 06:49:38;;;;;;;6.05;5.78;;;;;;;;;;5029901;28;20478;-77
2021/09/12 06:52:04;;;;;;;6.68;6.47;;;;;;;;;;5027597;28;20064;-77
2021/09/12 06:54:31;;;;;;;7.03;6.82;;;;;;;;;;5029582;28;20165;-77
2021/09/12 06:56:58;;;;;;;6.13;6.03;;;;;;;;;;5060844;28;20033;-77
2021/09/12 06:59:25;;;;;;;7.78;7.53;;;;;;;;;;5016119;28;20050;-77
2021/09/12 07:01:51;;;;;;;5.85;5.57;;;;;;;;;;5039958;28;20187;-77
2021/09/12 07:04:19;;;;;;;6.85;6.55;;;;;;;;;;5028113;28;20084;-77
2021/09/12 07:06:45;;;;;;;6.55;6.20;;;;;;;;;;5030382;28;20095;-77
2021/09/12 07:09:12;;;;;;;6.38;6.18;;;;;;;;;;5029037;28;20073;-78
2021/09/12 07:11:39;;;;;;;6.53;6.32;;;;;;;;;;5029327;28;20513;-78
2021/09/12 07:14:06;;;;;;;6.18;5.82;;;;;;;;;;5056592;28;20551;-78
2021/09/12 07:16:33;;;;;;;5.75;5.38;;;;;;;;;;5026680;28;20117;-78
2021/09/12 07:19:06;;;;;;;5.68;5.47;;;;;;;;;;5054301;28;20112;-78
2021/09/12 07:21:33;;;;;;;5.95;5.75;;;;;;;;;;5028908;28;20037;-78
2021/09/12 07:24:00;;;;;;;4.40;4.30;;;;;;;;;;5027319;28;20040;-78
2021/09/12 07:26:27;;;;;;;6.35;6.15;;;;;;;;;;5024081;28;20046;-78
2021/09/12 07:28:54;;;;;;;5.00;4.70;;;;;;;;;;5017031;28;20041;-78
2021/09/12 07:31:21;;;;;;;5.18;4.97;;;;;;;;;;5022054;28;20056;-78
2021/09/12 07:33:48;;;;;;;5.47;5.07;;;;;;;;;;5020061;28;20050;-78
2021/09/12 07:36:14;;;;;;;5.20;4.90;;;;;;;;;;5027299;28;20407;-78
2021/09/12 07:38:41;;;;;;;5.28;5.00;;;;;;;;;;5029239;28;20091;-78
2021/09/12 07:41:09;;;;;;;5.80;5.50;;;;;;;;;;5028202;28;20080;-78
2021/09/12 07:43:35;;;;;;;5.63;5.10;;;;;;;;;;5020797;28;20054;-78
2021/09/12 07:46:02;;;;;;;6.32;6.03;;;;;;;;;;5034041;28;20444;-78
2021/09/12 07:48:29;;;;;;;5.72;5.43;;;;;;;;;;5027492;28;20037;-78
2021/09/12 07:50:59;;;;;;;5.30;5.20;;;;;;;;;;5027729;28;20033;-78
2021/09/12 07:53:25;;;;;;;5.78;5.53;;;;;;;;;;5028459;28;20056;-78
2021/09/12 07:55:52;;;;;;;5.88;5.63;;;;;;;;;;5044381;28;20504;-78
2021/09/12 07:58:19;;;;;;;5.43;5.18;;;;;;;;;;5027703;28;20038;-78
2021/09/12 08:00:46;;;;;;;4.35;4.25;;;;;;;;;;5029320;28;20482;-78
2021/09/12 08:03:15;;;;;;;5.03;4.90;;;;;;;;;;5028309;28;20098;-78
2021/09/12 08:05:42;;;;;;;4.45;4.15;;;;;;;;;;5026938;28;20084;-78
2021/09/12 08:08:09;;;;;;;4.65;4.45;;;;;;;;;;5029286;28;20490;-78
2021/09/12 08:10:36;;;;;;;5.18;4.70;;;;;;;;;;5028909;28;20045;-78
2021/09/12 08:13:03;;;;;;;4.13;3.78;;;;;;;;;;5041077;28;20045;-78
2021/09/12 08:15:29;;;;;;;4.97;4.57;;;;;;;;;;5024068;28;20045;-78
2021/09/12 08:17:56;;;;;;;5.75;5.50;;;;;;;;;;5025276;28;20042;-78
2021/09/12 08:20:23;;;;;;;6.15;3.40;;;;;;;;;;5047698;28;20597;-78
2021/09/12 08:22:50;;;;;;;7.13;6.32;;;;;;;;;;5034221;28;20477;-78
2021/09/12 08:25:17;;;;;;;7.57;6.97;;;;;;;;;;5019809;28;20042;-78
2021/09/12 08:27:44;;;;;;;7.80;7.40;;;;;;;;;;5024104;28;20480;-78
2021/09/12 08:30:11;;;;;;;6.85;6.65;;;;;;;;;;5027100;28;20087;-78
2021/09/12 08:32:38;;;;;;;4.00;3.83;;;;;;;;;;5029076;28;20041;-78
2021/09/12 08:35:05;;;;;;;4.80;4.70;;;;;;;;;;5028353;28;20069;-78
2021/09/12 08:37:32;;;;;;;4.60;4.30;;;;;;;;;;5027842;28;20068;-78
2021/09/12 08:39:59;;;;;;;3.88;3.67;;;;;;;;;;5026194;28;20107;-78
2021/09/12 08:42:26;;;;;;;5.00;3.03;;;;;;;;;;5030438;28;20095;-79
2021/09/12 08:44:53;;;;;;;3.38;3.28;;;;;;;;;;5028720;28;20041;-79
2021/09/12 08:47:20;;;;;;;3.10;2.97;;;;;;;;;;5027366;28;20041;-79
2021/09/12 08:49:50;;;;;;;4.20;4.00;;;;;;;;;;5028207;28;20037;-79
2021/09/12 08:52:17;;;;;;;2.38;2.28;;;;;;;;;;5059956;28;20103;-79
2021/09/12 08:54:44;;;;;;;2.47;2.38;;;;;;;;;;5025741;28;20130;-79
2021/09/12 08:57:11;;;;;;;3.22;2.92;;;;;;;;;;5027476;28;20049;-79
2021/09/12 08:59:38;;;;;;;3.53;2.38;;;;;;;;;;5059708;28;20103;-79
2021/09/12 09:02:05;;;;;;;2.50;2.30;;;;;;;;;;5060318;28;20091;-79
2021/09/12 09:04:34;;;;;;;2.25;2.15;;;;;;;;;;5026234;28;20054;-79
2021/09/12 09:07:05;;;;;;;2.38;2.28;;;;;;;;;;5057704;28;20509;-79
2021/09/12 09:09:40;;;;;;;2.20;2.10;;;;;;;;;;5022114;28;20053;-79
2021/09/12 09:12:41;;;;;;;2.10;2.00;;;;;;;;;;5025648;28;20041;-79
2021/09/12 09:15:15;;;;;;;4.03;2.25;;;;;;;;;;4998264;28;20200;-79
2021/09/12 09:17:46;;;;;;;3.47;1.85;;;;;;;;;;4969943;28;20128;-79
2021/09/12 09:20:17;;;;;;;1.63;1.45;;;;;;;;;;4983761;28;20064;-79
2021/09/12 09:22:48;;;;;;;1.75;1.70;;;;;;;;;;5004914;28;20038;-79
2021/09/12 09:25:17;;;;;;;1.50;1.40;;;;;;;;;;5008878;28;20058;-79
2021/09/12 09:27:58;;;;;;;2.33;1.42;;;;;;;;;;5008191;28;20058;-79
2021/09/12 09:30:26;;;;;;;1.25;1.25;;;;;;;;;;5006522;28;20052;-79
2021/09/12 09:32:53;;;;;;;1.45;1.35;;;;;;;;;;5009384;28;20083;-80
2021/09/12 09:35:20;;;;;;;1.38;1.38;;;;;;;;;;4978709;28;20095;-80
2021/09/12 09:37:48;;;;;;;2.45;1.52;;;;;;;;;;4993427;28;20089;-80
2021/09/12 09:40:14;;;;;;;1.05;1.00;;;;;;;;;;5009788;28;20104;-80
2021/09/12 09:42:42;;;;;;;1.13;1.13;;;;;;;;;;4984034;28;20431;-79
2021/09/12 09:45:11;;;;;;;1.80;0.90;;;;;;;;;;5001391;28;20046;-79
2021/09/12 09:47:39;;;;;;;2.60;1.10;;;;;;;;;;4999261;28;20046;-79
2021/09/12 09:50:09;;;;;;;1.70;1.60;;;;;;;;;;4997217;28;20054;-79
2021/09/12 09:52:36;;;;;;;1.15;1.15;;;;;;;;;;5046483;28;20041;-79
2021/09/12 09:55:04;;;;;;;1.98;0.80;;;;;;;;;;5032334;28;20046;-79
2021/09/12 09:57:32;;;;;;;1.30;1.20;;;;;;;;;;5026793;28;20088;-79
2021/09/12 09:59:59;;;;;;;3.55;1.30;;;;;;;;;;5043398;28;20038;-79
2021/09/12 10:02:26;;;;;;;1.58;1.00;;;;;;;;;;5032859;28;20091;-79
2021/09/12 10:04:53;;;;;;;1.85;1.20;;;;;;;;;;5028912;28;20040;-80
2021/09/12 10:07:20;;;;;;;1.13;1.13;;;;;;;;;;5030868;28;20382;-80
2021/09/12 10:09:47;;;;;;;2.55;1.08;;;;;;;;;;5030321;28;20057;-80
2021/09/12 10:12:14;;;;;;;0.70;0.70;;;;;;;;;;5016343;28;20638;-80
2021/09/12 10:14:40;;;;;;;2.05;1.10;;;;;;;;;;5039955;28;20108;-80
2021/09/12 10:17:14;;;;;;;1.67;0.80;;;;;;;;;;5032208;28;20091;-80
2021/09/12 10:19:41;;;;;;;0.85;0.85;;;;;;;;;;5038239;28;20069;-80
2021/09/12 10:22:18;;;;;;;1.92;0.70;;;;;;;;;;5034019;28;20435;-80
2021/09/12 10:25:11;;;;;;;0.60;0.60;;;;;;;;;;5031858;28;20044;-80
2021/09/12 10:27:45;;;;;;;0.50;0.50;;;;;;;;;;5030141;28;20123;-80
2021/09/12 10:30:18;;;;;;;0.77;0.60;;;;;;;;;;5062121;28;20045;-80
2021/09/12 10:32:45;;;;;;;0.60;0.60;;;;;;;;;;5032222;28;20038;-80
2021/09/12 10:35:14;;;;;;;0.57;0.57;;;;;;;;;;5033383;28;20469;-80
2021/09/12 10:37:52;;;;;;;0.52;0.52;;;;;;;;;;5044549;28;20367;-80
2021/09/12 10:40:19;;;;;;;1.25;0.60;;;;;;;;;;5060108;28;20390;-80
2021/09/12 10:42:45;;;;;;;0.70;0.70;;;;;;;;;;5033106;28;20041;-80
2021/09/12 10:45:23;;;;;;;2.08;1.20;;;;;;;;;;5031438;28;20056;-80
2021/09/12 10:47:50;;;;;;;2.75;0.98;;;;;;;;;;5030921;28;20486;-80
2021/09/12 10:50:35;;;;;;;0.85;0.85;;;;;;;;;;5027551;28;20069;-80
2021/09/12 10:53:02;;;;;;;0.60;0.60;;;;;;;;;;5061897;28;20371;-80
2021/09/12 10:55:38;;;;;;;0.75;0.60;;;;;;;;;;5031017;28;20073;-80
2021/09/12 10:58:05;;;;;;;0.57;0.57;;;;;;;;;;5047015;28;20045;-80
2021/09/12 11:00:32;;;;;;;2.60;0.65;;;;;;;;;;5031281;28;20116;-80
2021/09/12 11:03:00;;;;;;;0.60;0.60;;;;;;;;;;5030424;28;20045;-80
2021/09/12 11:05:27;;;;;;;1.58;0.70;;;;;;;;;;5026437;28;20079;-80
2021/09/12 11:07:55;;;;;;;0.60;0.60;;;;;;;;;;5013325;28;20049;-80
2021/09/12 11:10:38;;;;;;;0.60;0.60;;;;;;;;;;5031477;28;20124;-80
2021/09/12 11:13:05;;;;;;;0.93;0.60;;;;;;;;;;5027198;28;20045;-80
2021/09/12 11:15:32;;;;;;;0.60;0.60;;;;;;;;;;5024099;28;20493;-80
2021/09/12 11:18:00;;;;;;;2.47;0.60;;;;;;;;;;5036771;28;20037;-80
2021/09/12 11:20:44;;;;;;;0.63;0.60;;;;;;;;;;5014539;28;20453;-80
2021/09/12 11:23:11;;;;;;;0.93;0.60;;;;;;;;;;5057098;28;20096;-80
2021/09/12 11:25:37;;;;;;;1.50;0.60;;;;;;;;;;5020075;28;20417;-80
2021/09/12 11:28:06;;;;;;;1.75;0.65;;;;;;;;;;5031782;28;20042;-80
2021/09/12 11:30:33;;;;;;;0.57;0.50;;;;;;;;;;5061745;28;20033;-80
2021/09/12 11:33:02;;;;;;;1.05;0.60;;;;;;;;;;5030744;28;20053;-80
2021/09/12 11:35:29;;;;;;;0.80;0.70;;;;;;;;;;5031589;28;20126;-80
2021/09/12 11:38:03;;;;;;;0.60;0.60;;;;;;;;;;5030156;28;20034;-80
2021/09/12 11:40:29;;;;;;;0.50;0.50;;;;;;;;;;5029681;28;20129;-80
2021/09/12 11:43:09;;;;;;;0.65;0.60;;;;;;;;;;5030022;28;20159;-80
2021/09/12 11:45:36;;;;;;;0.93;0.60;;;;;;;;;;5030302;28;20049;-80
2021/09/12 11:48:03;;;;;;;0.50;0.50;;;;;;;;;;5014120;28;20413;-80
2021/09/12 11:50:30;;;;;;;0.50;0.50;;;;;;;;;;5031960;28;20107;-80
2021/09/12 11:52:56;;;;;;;3.17;0.80;;;;;;;;;;5013155;28;20358;-80
2021/09/12 11:55:24;;;;;;;0.60;0.60;;;;;;;;;;5027933;28;20041;-80
2021/09/12 11:57:58;;;;;;;0.77;0.60;;;;;;;;;;5030274;28;20045;-80
2021/09/12 12:00:27;;;;;;;1.75;0.60;;;;;;;;;;5031152;28;20037;-80
2021/09/12 12:02:54;;;;;;;0.85;0.50;;;;;;;;;;5014093;28;20049;-80
2021/09/12 12:05:22;;;;;;;0.50;0.50;;;;;;;;;;5029159;28;20524;-80
2021/09/12 12:07:51;;;;;;;0.60;0.60;;;;;;;;;;5030991;28;20049;-80
2021/09/12 12:10:31;;;;;;;0.50;0.50;;;;;;;;;;5027912;28;20670;-80
2021/09/12 12:12:58;;;;;;;0.68;0.68;;;;;;;;;;5031243;28;20136;-80
2021/09/12 12:15:36;;;;;;;1.75;0.80;;;;;;;;;;5027130;28;20033;-80
2021/09/12 12:18:10;;;;;;;1.58;0.60;;;;;;;;;;5034461;28;23715;-80
2021/09/12 12:20:38;;;;;;;1.25;0.50;;;;;;;;;;5037102;28;20060;-81
2021/09/12 12:23:15;;;;;;;0.50;0.50;;;;;;;;;;5032356;28;20037;-80
2021/09/12 12:25:42;;;;;;;0.60;0.60;;;;;;;;;;5032404;28;20037;-80
2021/09/12 12:28:22;;;;;;;1.58;0.60;;;;;;;;;;5029957;28;20037;-80
2021/09/12 12:31:07;;;;;;;0.57;0.57;;;;;;;;;;5030061;28;20719;-80
2021/09/12 12:33:35;;;;;;;4.10;0.50;;;;;;;;;;5015184;28;20467;-80
2021/09/12 12:36:06;;;;;;;0.65;0.65;;;;;;;;;;5030114;28;20037;-80
2021/09/12 12:38:34;;;;;;;1.25;0.70;;;;;;;;;;5006687;28;20041;-80
2021/09/12 12:41:19;;;;;;;0.50;0.50;;;;;;;;;;5031911;28;20049;-80
2021/09/12 12:43:47;;;;;;;0.60;0.50;;;;;;;;;;5026511;28;20038;-80
2021/09/12 12:46:14;;;;;;;0.50;0.50;;;;;;;;;;5020122;28;20037;-80
2021/09/12 12:48:42;;;;;;;1.00;0.50;;;;;;;;;;5019520;28;20128;-80
2021/09/12 12:51:10;;;;;;;0.60;0.60;;;;;;;;;;5044058;28;20041;-80
2021/09/12 12:53:44;;;;;;;0.50;0.50;;;;;;;;;;5031050;28;20045;-80
2021/09/12 12:56:16;;;;;;;1.30;0.50;;;;;;;;;;5030174;28;20500;-80
2021/09/12 12:58:44;;;;;;;0.50;0.50;;;;;;;;;;5030561;28;20037;-80
2021/09/12 13:01:11;;;;;;;0.50;0.50;;;;;;;;;;5030449;28;20051;-80
2021/09/12 13:03:39;;;;;;;3.55;0.50;;;;;;;;;;5060994;28;20042;-80
2021/09/12 13:06:08;;;;;;;0.50;0.50;;;;;;;;;;5032433;28;20140;-80
2021/09/12 13:08:35;;;;;;;0.70;0.60;;;;;;;;;;5010492;28;20053;-80
2021/09/12 13:11:01;;;;;;;2.70;0.57;;;;;;;;;;5016591;28;20123;-80
2021/09/12 13:13:28;;;;;;;1.50;0.50;;;;;;;;;;5017104;28;20052;-80
2021/09/12 13:15:55;;;;;;;0.75;0.50;;;;;;;;;;5031509;28;20152;-80
2021/09/12 13:18:23;;;;;;;0.50;0.50;;;;;;;;;;5032736;28;20094;-80
2021/09/12 13:20:51;;;;;;;0.50;0.50;;;;;;;;;;5022228;28;20482;-80
2021/09/12 13:23:18;;;;;;;0.75;0.55;;;;;;;;;;5048500;28;20482;-80
2021/09/12 13:25:45;;;;;;;0.50;0.50;;;;;;;;;;5033412;28;20436;-80
2021/09/12 13:28:12;;;;;;;1.90;0.50;;;;;;;;;;5031898;28;20381;-80
2021/09/12 13:30:42;;;;;;;1.45;0.60;;;;;;;;;;5032286;28;20060;-80
2021/09/12 13:33:08;;;;;;;0.50;0.50;;;;;;;;;;5031704;28;20540;-80
2021/09/12 13:35:35;;;;;;;0.50;0.50;;;;;;;;;;5033663;28;20037;-80
2021/09/12 13:38:02;;;;;;;0.50;0.50;;;;;;;;;;5026208;28;20049;-80
2021/09/12 13:40:29;;;;;;;0.47;0.47;;;;;;;;;;5032430;28;20053;-80
2021/09/12 13:42:56;;;;;;;0.50;0.50;;;;;;;;;;5046731;28;20041;-80
2021/09/12 13:45:22;;;;;;;0.60;0.60;;;;;;;;;;5033934;28;20049;-80
2021/09/12 13:47:49;;;;;;;2.75;0.60;;;;;;;;;;5031430;28;20106;-80
2021/09/12 13:50:16;;;;;;;0.50;0.50;;;;;;;;;;5030613;28;20096;-80
2021/09/12 13:52:43;;;;;;;0.93;0.50;;;;;;;;;;5028393;28;20037;-80
2021/09/12 13:55:10;;;;;;;0.43;0.43;;;;;;;;;;5033354;28;20033;-80
2021/09/12 13:57:37;;;;;;;2.17;0.88;;;;;;;;;;5032167;28;20038;-80
2021/09/12 14:00:04;;;;;;;0.50;0.50;;;;;;;;;;5027089;28;20056;-80
2021/09/12 14:02:31;;;;;;;1.08;0.50;;;;;;;;;;5030678;28;20045;-80
2021/09/12 14:04:58;;;;;;;5.47;0.55;;;;;;;;;;5032199;28;20042;-80
2021/09/12 14:07:28;;;;;;;0.40;0.40;;;;;;;;;;5022845;28;20091;-80
2021/09/12 14:09:56;;;;;;;1.05;0.50;;;;;;;;;;5032822;28;20045;-80
2021/09/12 14:12:22;;;;;;;0.80;0.50;;;;;;;;;;5055902;28;20401;-80
2021/09/12 14:14:49;;;;;;;0.50;0.50;;;;;;;;;;5021066;28;20042;-80
2021/09/12 14:17:20;;;;;;;1.85;0.50;;;;;;;;;;5039488;28;20086;-80
2021/09/12 14:19:46;;;;;;;0.73;0.60;;;;;;;;;;5058028;28;20577;-80
2021/09/12 14:22:13;;;;;;;1.08;0.68;;;;;;;;;;5032376;28;20440;-80
2021/09/12 14:24:40;;;;;;;0.60;0.60;;;;;;;;;;5033442;28;20045;-80
2021/09/12 14:27:07;;;;;;;1.58;0.60;;;;;;;;;;5033548;28;20091;-80
2021/09/12 14:29:33;;;;;;;0.75;0.60;;;;;;;;;;5042946;28;20069;-80
2021/09/12 14:32:01;;;;;;;0.52;0.52;;;;;;;;;;5036908;28;20099;-80
2021/09/12 14:34:28;;;;;;;0.82;0.82;;;;;;;;;;5030349;28;20114;-80
2021/09/12 14:36:55;;;;;;;0.82;0.60;;;;;;;;;;5029961;28;20038;-80
2021/09/12 14:39:21;;;;;;;0.65;0.50;;;;;;;;;;5056652;28;20049;-80
2021/09/12 14:41:48;;;;;;;2.78;0.50;;;;;;;;;;5032509;28;20038;-80
2021/09/12 14:44:15;;;;;;;1.05;0.60;;;;;;;;;;5031791;28;20068;-80
2021/09/12 14:46:42;;;;;;;0.50;0.50;;;;;;;;;;5030689;28;20782;-80